sensor_id;sensor_type;location;lat;lon;timestamp;pressure;altitude;pressure_sealevel;temperature;humidity
28510;BME280;15723;55.684;37.928;2023-02-21T00:01:56;97930.00;;;-10.27;65.30
28510;BME280;15723;55.684;37.928;2023-02-21T00:04:41;97922.03;;;-10.21;66.00
28510;BME280;15723;55.684;37.928;2023-02-21T00:07:26;97918.41;;;-10.15;66.12
28510;BME280;15723;55.684;37.928;2023-02-21T00:10:13;97911.25;;;-10.02;65.16
28510;BME280;15723;55.684;37.928;2023-02-21T00:12:58;97913.56;;;-9.81;63.96
28510;BME280;15723;55.684;37.928;2023-02-21T00:15:43;97898.88;;;-9.93;64.83
28510;BME280;15723;55.684;37.928;2023-02-21T00:18:27;97906.53;;;-10.37;65.69
28510;BME280;15723;55.684;37.928;2023-02-21T00:21:16;97908.25;;;-10.35;65.45
28510;BME280;15723;55.684;37.928;2023-02-21T00:24:01;97906.63;;;-10.47;65.33
28510;BME280;15723;55.684;37.928;2023-02-21T00:26:47;97896.72;;;-10.23;64.65
28510;BME280;15723;55.684;37.928;2023-02-21T00:29:31;97902.84;;;-9.69;62.99
28510;BME280;15723;55.684;37.928;2023-02-21T00:32:16;97903.16;;;-10.47;63.99
28510;BME280;15723;55.684;37.928;2023-02-21T00:35:01;97901.91;;;-10.20;64.15
28510;BME280;15723;55.684;37.928;2023-02-21T00:37:50;97902.03;;;-10.28;63.36
28510;BME280;15723;55.684;37.928;2023-02-21T00:40:36;97906.16;;;-10.78;64.80
28510;BME280;15723;55.684;37.928;2023-02-21T00:43:32;97904.69;;;-11.03;65.33
28510;BME280;15723;55.684;37.928;2023-02-21T00:46:18;97894.81;;;-10.80;64.80
28510;BME280;15723;55.684;37.928;2023-02-21T00:49:04;97904.41;;;-10.76;64.60
28510;BME280;15723;55.684;37.928;2023-02-21T00:51:49;97894.50;;;-11.30;65.68
28510;BME280;15723;55.684;37.928;2023-02-21T00:54:34;97901.72;;;-11.58;66.43
28510;BME280;15723;55.684;37.928;2023-02-21T00:57:19;97892.94;;;-11.53;66.55
28510;BME280;15723;55.684;37.928;2023-02-21T01:00:06;97894.41;;;-11.23;65.55
28510;BME280;15723;55.684;37.928;2023-02-21T01:02:53;97886.06;;;-11.63;66.29
28510;BME280;15723;55.684;37.928;2023-02-21T01:05:38;97885.03;;;-11.42;65.82
28510;BME280;15723;55.684;37.928;2023-02-21T01:08:23;97878.16;;;-11.58;65.00
28510;BME280;15723;55.684;37.928;2023-02-21T01:11:14;97863.34;;;-11.59;66.69
28510;BME280;15723;55.684;37.928;2023-02-21T01:13:59;97863.50;;;-11.73;66.75
28510;BME280;15723;55.684;37.928;2023-02-21T01:16:44;97856.94;;;-12.21;67.48
28510;BME280;15723;55.684;37.928;2023-02-21T01:19:29;97853.63;;;-12.49;68.30
28510;BME280;15723;55.684;37.928;2023-02-21T01:22:14;97857.97;;;-12.50;67.86
28510;BME280;15723;55.684;37.928;2023-02-21T01:24:59;97850.00;;;-12.30;66.25
28510;BME280;15723;55.684;37.928;2023-02-21T01:27:44;97855.19;;;-12.19;67.11
28510;BME280;15723;55.684;37.928;2023-02-21T01:30:29;97854.59;;;-12.70;68.35
28510;BME280;15723;55.684;37.928;2023-02-21T01:33:14;97857.25;;;-12.75;67.02
28510;BME280;15723;55.684;37.928;2023-02-21T01:35:58;97855.13;;;-12.15;65.89
28510;BME280;15723;55.684;37.928;2023-02-21T01:38:43;97863.31;;;-12.70;66.31
28510;BME280;15723;55.684;37.928;2023-02-21T01:41:29;97856.34;;;-12.71;66.85
28510;BME280;15723;55.684;37.928;2023-02-21T01:47:12;97863.22;;;-12.50;67.00
28510;BME280;15723;55.684;37.928;2023-02-21T01:49:59;97858.63;;;-12.14;65.66
28510;BME280;15723;55.684;37.928;2023-02-21T01:52:45;97854.66;;;-12.82;65.30
28510;BME280;15723;55.684;37.928;2023-02-21T01:55:32;97858.88;;;-12.52;66.40
28510;BME280;15723;55.684;37.928;2023-02-21T01:58:20;97858.06;;;-12.68;65.84
28510;BME280;15723;55.684;37.928;2023-02-21T02:01:09;97862.72;;;-13.27;67.73
28510;BME280;15723;55.684;37.928;2023-02-21T02:03:56;97857.47;;;-13.20;67.64
28510;BME280;15723;55.684;37.928;2023-02-21T02:06:43;97859.25;;;-13.41;67.72
28510;BME280;15723;55.684;37.928;2023-02-21T02:09:30;97865.41;;;-13.63;68.90
28510;BME280;15723;55.684;37.928;2023-02-21T02:33:43;97860.19;;;-13.66;66.47
28510;BME280;15723;55.684;37.928;2023-02-21T02:37:07;97860.84;;;-13.03;65.25
28510;BME280;15723;55.684;37.928;2023-02-21T02:39:48;97867.16;;;-13.80;66.40
28510;BME280;15723;55.684;37.928;2023-02-21T02:42:39;97863.69;;;-13.98;67.49
28510;BME280;15723;55.684;37.928;2023-02-21T02:45:15;97851.53;;;-13.74;66.70
28510;BME280;15723;55.684;37.928;2023-02-21T02:47:45;97853.22;;;-13.60;66.68
28510;BME280;15723;55.684;37.928;2023-02-21T02:50:15;97846.28;;;-13.79;67.48
28510;BME280;15723;55.684;37.928;2023-02-21T02:52:50;97847.19;;;-14.03;67.89
28510;BME280;15723;55.684;37.928;2023-02-21T02:55:27;97849.69;;;-13.45;66.88
28510;BME280;15723;55.684;37.928;2023-02-21T02:57:56;97842.78;;;-13.53;66.65
28510;BME280;15723;55.684;37.928;2023-02-21T03:00:23;97837.47;;;-13.23;66.67
28510;BME280;15723;55.684;37.928;2023-02-21T03:06:05;97842.75;;;-13.47;65.71
28510;BME280;15723;55.684;37.928;2023-02-21T03:08:56;97844.34;;;-13.10;65.30
28510;BME280;15723;55.684;37.928;2023-02-21T03:11:25;97846.19;;;-13.29;65.90
28510;BME280;15723;55.684;37.928;2023-02-21T03:14:28;97836.59;;;-13.20;66.32
28510;BME280;15723;55.684;37.928;2023-02-21T03:17:02;97836.63;;;-13.28;65.57
28510;BME280;15723;55.684;37.928;2023-02-21T03:19:36;97838.41;;;-13.38;66.47
28510;BME280;15723;55.684;37.928;2023-02-21T03:22:15;97837.22;;;-12.77;66.34
28510;BME280;15723;55.684;37.928;2023-02-21T03:24:48;97840.81;;;-12.97;65.78
28510;BME280;15723;55.684;37.928;2023-02-21T03:27:15;97837.50;;;-13.31;66.90
28510;BME280;15723;55.684;37.928;2023-02-21T03:29:47;97840.13;;;-13.32;66.30
28510;BME280;15723;55.684;37.928;2023-02-21T03:35:03;97840.94;;;-13.18;66.20
28510;BME280;15723;55.684;37.928;2023-02-21T03:37:39;97841.88;;;-13.51;66.10
28510;BME280;15723;55.684;37.928;2023-02-21T03:40:11;97843.41;;;-13.01;65.96
28510;BME280;15723;55.684;37.928;2023-02-21T03:42:38;97839.34;;;-13.72;66.44
28510;BME280;15723;55.684;37.928;2023-02-21T03:45:05;97840.94;;;-13.22;65.76
28510;BME280;15723;55.684;37.928;2023-02-21T03:47:32;97834.03;;;-13.45;65.72
28510;BME280;15723;55.684;37.928;2023-02-21T03:49:58;97838.22;;;-13.06;65.32
28510;BME280;15723;55.684;37.928;2023-02-21T03:52:25;97838.34;;;-13.22;65.48
28510;BME280;15723;55.684;37.928;2023-02-21T03:54:51;97834.94;;;-13.53;66.24
28510;BME280;15723;55.684;37.928;2023-02-21T03:57:19;97833.19;;;-13.50;65.51
28510;BME280;15723;55.684;37.928;2023-02-21T03:59:47;97828.00;;;-13.57;65.73
28510;BME280;15723;55.684;37.928;2023-02-21T04:02:14;97839.28;;;-13.48;66.07
28510;BME280;15723;55.684;37.928;2023-02-21T04:04:41;97838.41;;;-13.53;65.59
28510;BME280;15723;55.684;37.928;2023-02-21T04:07:11;97836.69;;;-13.52;65.32
28510;BME280;15723;55.684;37.928;2023-02-21T04:09:37;97833.25;;;-13.85;66.35
28510;BME280;15723;55.684;37.928;2023-02-21T04:12:05;97827.16;;;-13.67;66.26
28510;BME280;15723;55.684;37.928;2023-02-21T04:14:33;97828.88;;;-13.65;66.34
28510;BME280;15723;55.684;37.928;2023-02-21T04:16:59;97833.16;;;-13.45;64.95
28510;BME280;15723;55.684;37.928;2023-02-21T04:19:26;97824.50;;;-13.50;64.68
28510;BME280;15723;55.684;37.928;2023-02-21T04:21:52;97843.69;;;-13.80;65.24
28510;BME280;15723;55.684;37.928;2023-02-21T04:24:19;97838.47;;;-13.73;65.28
28510;BME280;15723;55.684;37.928;2023-02-21T04:26:45;97836.63;;;-13.33;64.65
28510;BME280;15723;55.684;37.928;2023-02-21T04:29:12;97843.63;;;-13.48;64.88
28510;BME280;15723;55.684;37.928;2023-02-21T04:31:40;97841.88;;;-13.49;64.39
28510;BME280;15723;55.684;37.928;2023-02-21T04:34:11;97851.53;;;-13.91;64.80
28510;BME280;15723;55.684;37.928;2023-02-21T04:36:39;97847.09;;;-13.34;63.82
28510;BME280;15723;55.684;37.928;2023-02-21T04:39:06;97844.53;;;-13.60;63.93
28510;BME280;15723;55.684;37.928;2023-02-21T04:41:32;97846.28;;;-13.62;63.21
28510;BME280;15723;55.684;37.928;2023-02-21T04:43:59;97846.06;;;-13.00;62.30
28510;BME280;15723;55.684;37.928;2023-02-21T04:46:25;97847.78;;;-13.03;62.30
28510;BME280;15723;55.684;37.928;2023-02-21T04:48:51;97850.56;;;-13.43;63.04
28510;BME280;15723;55.684;37.928;2023-02-21T04:51:22;97849.50;;;-12.90;62.46
28510;BME280;15723;55.684;37.928;2023-02-21T04:53:49;97857.59;;;-13.83;63.35
28510;BME280;15723;55.684;37.928;2023-02-21T04:56:21;97858.44;;;-13.63;62.90
28510;BME280;15723;55.684;37.928;2023-02-21T04:58:47;97855.75;;;-13.29;66.90
28510;BME280;15723;55.684;37.928;2023-02-21T05:01:14;97856.50;;;-13.04;64.18
28510;BME280;15723;55.684;37.928;2023-02-21T05:03:41;97853.81;;;-12.86;64.13
28510;BME280;15723;55.684;37.928;2023-02-21T05:06:07;97856.59;;;-11.79;64.05
28510;BME280;15723;55.684;37.928;2023-02-21T05:08:35;97848.44;;;-11.50;60.67
28510;BME280;15723;55.684;37.928;2023-02-21T05:11:02;97852.56;;;-11.27;61.01
28510;BME280;15723;55.684;37.928;2023-02-21T05:13:28;97845.72;;;-11.41;60.77
28510;BME280;15723;55.684;37.928;2023-02-21T05:15:54;97853.19;;;-11.88;59.74
28510;BME280;15723;55.684;37.928;2023-02-21T05:18:20;97852.00;;;-11.58;59.05
28510;BME280;15723;55.684;37.928;2023-02-21T05:20:53;97850.06;;;-11.38;58.07
28510;BME280;15723;55.684;37.928;2023-02-21T05:23:20;97847.66;;;-11.61;58.17
28510;BME280;15723;55.684;37.928;2023-02-21T05:26:11;97853.69;;;-11.51;58.54
28510;BME280;15723;55.684;37.928;2023-02-21T05:28:39;97843.16;;;-11.45;58.64
28510;BME280;15723;55.684;37.928;2023-02-21T05:31:06;97856.66;;;-11.86;58.85
28510;BME280;15723;55.684;37.928;2023-02-21T05:33:32;97850.22;;;-10.78;57.10
28510;BME280;15723;55.684;37.928;2023-02-21T05:35:59;97851.97;;;-10.76;57.11
28510;BME280;15723;55.684;37.928;2023-02-21T05:38:26;97850.09;;;-10.66;56.90
28510;BME280;15723;55.684;37.928;2023-02-21T05:40:52;97843.59;;;-10.37;54.82
28510;BME280;15723;55.684;37.928;2023-02-21T05:43:18;97844.13;;;-10.77;55.77
28510;BME280;15723;55.684;37.928;2023-02-21T05:45:45;97840.81;;;-10.27;56.34
28510;BME280;15723;55.684;37.928;2023-02-21T05:48:11;97840.09;;;-9.84;53.92
28510;BME280;15723;55.684;37.928;2023-02-21T05:50:37;97852.50;;;-9.94;54.90
28510;BME280;15723;55.684;37.928;2023-02-21T05:53:04;97841.84;;;-9.34;53.57
28510;BME280;15723;55.684;37.928;2023-02-21T05:55:31;97838.59;;;-9.02;52.09
28510;BME280;15723;55.684;37.928;2023-02-21T05:57:57;97840.28;;;-8.98;51.79
28510;BME280;15723;55.684;37.928;2023-02-21T06:00:28;97838.28;;;-8.85;49.93
28510;BME280;15723;55.684;37.928;2023-02-21T06:02:55;97842.50;;;-9.21;52.59
28510;BME280;15723;55.684;37.928;2023-02-21T06:05:22;97852.94;;;-9.18;51.19
28510;BME280;15723;55.684;37.928;2023-02-21T06:07:48;97852.75;;;-9.07;52.64
28510;BME280;15723;55.684;37.928;2023-02-21T06:10:15;97851.38;;;-9.27;52.49
28510;BME280;15723;55.684;37.928;2023-02-21T06:12:42;97843.63;;;-9.36;53.11
28510;BME280;15723;55.684;37.928;2023-02-21T06:15:08;97842.94;;;-8.56;51.06
28510;BME280;15723;55.684;37.928;2023-02-21T06:17:36;97846.13;;;-8.82;50.52
28510;BME280;15723;55.684;37.928;2023-02-21T06:20:04;97851.72;;;-8.17;49.65
28510;BME280;15723;55.684;37.928;2023-02-21T06:22:31;97841.97;;;-7.76;46.95
28510;BME280;15723;55.684;37.928;2023-02-21T06:24:57;97838.56;;;-6.81;45.62
28510;BME280;15723;55.684;37.928;2023-02-21T06:27:23;97839.09;;;-6.09;44.19
28510;BME280;15723;55.684;37.928;2023-02-21T06:29:50;97840.56;;;-6.58;45.88
28510;BME280;15723;55.684;37.928;2023-02-21T06:32:16;97838.38;;;-7.38;46.50
28510;BME280;15723;55.684;37.928;2023-02-21T06:34:43;97837.44;;;-6.72;45.93
28510;BME280;15723;55.684;37.928;2023-02-21T06:37:09;97836.41;;;-6.37;45.35
28510;BME280;15723;55.684;37.928;2023-02-21T06:39:37;97839.16;;;-6.40;46.46
28510;BME280;15723;55.684;37.928;2023-02-21T06:42:04;97832.50;;;-6.24;46.37
28510;BME280;15723;55.684;37.928;2023-02-21T06:44:31;97826.97;;;-5.62;44.43
28510;BME280;15723;55.684;37.928;2023-02-21T06:46:57;97836.19;;;-6.59;44.58
28510;BME280;15723;55.684;37.928;2023-02-21T06:49:23;97826.38;;;-5.70;44.43
28510;BME280;15723;55.684;37.928;2023-02-21T06:51:50;97821.63;;;-5.34;43.12
28510;BME280;15723;55.684;37.928;2023-02-21T06:54:16;97832.56;;;-5.18;43.34
28510;BME280;15723;55.684;37.928;2023-02-21T06:56:42;97836.03;;;-5.69;42.91
28510;BME280;15723;55.684;37.928;2023-02-21T06:59:09;97835.75;;;-5.09;42.94
28510;BME280;15723;55.684;37.928;2023-02-21T07:01:35;97834.47;;;-4.02;42.19
28510;BME280;15723;55.684;37.928;2023-02-21T07:04:01;97825.00;;;-5.04;41.34
28510;BME280;15723;55.684;37.928;2023-02-21T07:06:28;97835.63;;;-4.32;40.98
28510;BME280;15723;55.684;37.928;2023-02-21T07:08:54;97826.19;;;-4.39;40.66
28510;BME280;15723;55.684;37.928;2023-02-21T07:11:20;97826.88;;;-3.46;38.85
28510;BME280;15723;55.684;37.928;2023-02-21T07:13:51;97829.69;;;-3.70;39.91
28510;BME280;15723;55.684;37.928;2023-02-21T07:16:19;97831.53;;;-2.88;38.67
28510;BME280;15723;55.684;37.928;2023-02-21T07:18:45;97823.69;;;-2.91;37.82
28510;BME280;15723;55.684;37.928;2023-02-21T07:21:13;97843.09;;;-3.75;38.68
28510;BME280;15723;55.684;37.928;2023-02-21T07:23:42;97836.28;;;-3.17;37.98
28510;BME280;15723;55.684;37.928;2023-02-21T07:26:09;97834.44;;;-2.94;37.93
28510;BME280;15723;55.684;37.928;2023-02-21T07:28:35;97829.03;;;-2.33;37.34
28510;BME280;15723;55.684;37.928;2023-02-21T07:31:02;97831.41;;;-2.27;36.88
28510;BME280;15723;55.684;37.928;2023-02-21T07:33:28;97833.47;;;-2.53;37.64
28510;BME280;15723;55.684;37.928;2023-02-21T07:35:55;97834.63;;;-2.78;37.42
28510;BME280;15723;55.684;37.928;2023-02-21T07:38:23;97833.41;;;-2.51;37.01
28510;BME280;15723;55.684;37.928;2023-02-21T07:40:53;97834.59;;;-0.92;35.69
28510;BME280;15723;55.684;37.928;2023-02-21T07:43:19;97834.50;;;-1.42;36.08
28510;BME280;15723;55.684;37.928;2023-02-21T07:45:46;97849.19;;;-2.09;36.53
28510;BME280;15723;55.684;37.928;2023-02-21T07:48:12;97843.69;;;-2.25;36.56
28510;BME280;15723;55.684;37.928;2023-02-21T07:50:43;97838.63;;;-1.73;37.34
28510;BME280;15723;55.684;37.928;2023-02-21T07:53:10;97837.34;;;-2.21;37.10
28510;BME280;15723;55.684;37.928;2023-02-21T07:55:36;97834.41;;;-1.41;35.80
28510;BME280;15723;55.684;37.928;2023-02-21T07:58:02;97833.56;;;-1.41;36.04
28510;BME280;15723;55.684;37.928;2023-02-21T08:00:29;97833.75;;;0.40;34.56
28510;BME280;15723;55.684;37.928;2023-02-21T08:02:56;97837.75;;;0.31;33.72
28510;BME280;15723;55.684;37.928;2023-02-21T08:05:22;97833.47;;;-0.36;34.43
28510;BME280;15723;55.684;37.928;2023-02-21T08:07:48;97835.22;;;-0.87;35.56
28510;BME280;15723;55.684;37.928;2023-02-21T08:10:21;97832.66;;;-0.38;34.62
28510;BME280;15723;55.684;37.928;2023-02-21T08:12:48;97832.38;;;-1.36;35.07
28510;BME280;15723;55.684;37.928;2023-02-21T08:15:14;97827.31;;;1.19;32.62
28510;BME280;15723;55.684;37.928;2023-02-21T08:17:40;97817.47;;;0.90;32.74
28510;BME280;15723;55.684;37.928;2023-02-21T08:20:07;97831.31;;;-0.97;35.00
28510;BME280;15723;55.684;37.928;2023-02-21T08:22:35;97827.69;;;-0.79;35.03
28510;BME280;15723;55.684;37.928;2023-02-21T08:25:03;97834.88;;;-1.33;36.03
28510;BME280;15723;55.684;37.928;2023-02-21T08:27:29;97827.78;;;-0.63;35.04
28510;BME280;15723;55.684;37.928;2023-02-21T08:29:55;97832.66;;;-1.06;35.74
28510;BME280;15723;55.684;37.928;2023-02-21T08:32:22;97830.63;;;-1.01;36.41
28510;BME280;15723;55.684;37.928;2023-02-21T08:34:49;97837.88;;;-1.21;37.64
28510;BME280;15723;55.684;37.928;2023-02-21T08:37:15;97840.03;;;-1.11;36.26
28510;BME280;15723;55.684;37.928;2023-02-21T08:39:51;97844.53;;;-1.49;37.65
28510;BME280;15723;55.684;37.928;2023-02-21T08:42:20;97834.09;;;-1.71;37.94
28510;BME280;15723;55.684;37.928;2023-02-21T08:44:46;97849.19;;;-2.09;39.68
28510;BME280;15723;55.684;37.928;2023-02-21T08:47:14;97838.69;;;-1.93;39.33
28510;BME280;15723;55.684;37.928;2023-02-21T08:49:46;97841.28;;;-2.10;39.96
28510;BME280;15723;55.684;37.928;2023-02-21T08:52:14;97840.75;;;-2.37;39.44
28510;BME280;15723;55.684;37.928;2023-02-21T08:54:42;97849.28;;;-2.49;40.54
28510;BME280;15723;55.684;37.928;2023-02-21T08:57:08;97843.44;;;-2.78;41.41
28510;BME280;15723;55.684;37.928;2023-02-21T08:59:34;97844.22;;;-3.17;41.87
28510;BME280;15723;55.684;37.928;2023-02-21T09:02:03;97845.06;;;-2.94;42.12
28510;BME280;15723;55.684;37.928;2023-02-21T09:04:29;97837.94;;;-3.36;41.73
28510;BME280;15723;55.684;37.928;2023-02-21T09:06:55;97842.97;;;-3.50;43.66
28510;BME280;15723;55.684;37.928;2023-02-21T09:09:22;97848.19;;;-3.92;44.20
28510;BME280;15723;55.684;37.928;2023-02-21T09:11:48;97843.44;;;-2.98;43.34
28510;BME280;15723;55.684;37.928;2023-02-21T09:14:15;97848.22;;;-3.49;43.13
28510;BME280;15723;55.684;37.928;2023-02-21T09:16:42;97856.19;;;-3.70;43.19
28510;BME280;15723;55.684;37.928;2023-02-21T09:19:08;97851.41;;;-2.98;42.10
28510;BME280;15723;55.684;37.928;2023-02-21T09:21:35;97858.81;;;-4.16;43.69
28510;BME280;15723;55.684;37.928;2023-02-21T09:24:01;97857.91;;;-4.38;44.63
28510;BME280;15723;55.684;37.928;2023-02-21T09:26:28;97869.81;;;-4.03;45.35
28510;BME280;15723;55.684;37.928;2023-02-21T09:28:57;97858.44;;;-5.01;46.05
28510;BME280;15723;55.684;37.928;2023-02-21T09:31:23;97859.94;;;-5.46;46.43
28510;BME280;15723;55.684;37.928;2023-02-21T09:33:49;97849.19;;;-4.90;46.56
28510;BME280;15723;55.684;37.928;2023-02-21T09:36:17;97854.03;;;-4.53;44.85
28510;BME280;15723;55.684;37.928;2023-02-21T09:38:50;97848.22;;;-4.87;45.56
28510;BME280;15723;55.684;37.928;2023-02-21T09:41:16;97850.72;;;-4.34;46.38
28510;BME280;15723;55.684;37.928;2023-02-21T09:43:49;97840.22;;;-4.14;45.56
28510;BME280;15723;55.684;37.928;2023-02-21T09:49:00;97846.13;;;-4.54;44.84
28510;BME280;15723;55.684;37.928;2023-02-21T09:51:30;97843.47;;;-4.29;45.79
28510;BME280;15723;55.684;37.928;2023-02-21T09:53:58;97843.94;;;-3.74;45.32
28510;BME280;15723;55.684;37.928;2023-02-21T09:56:35;97844.44;;;-3.87;43.18
28510;BME280;15723;55.684;37.928;2023-02-21T09:59:10;97843.47;;;-3.62;44.53
28510;BME280;15723;55.684;37.928;2023-02-21T10:07:12;97840.88;;;-3.86;45.20
28510;BME280;15723;55.684;37.928;2023-02-21T10:09:53;97841.19;;;-4.63;45.75
28510;BME280;15723;55.684;37.928;2023-02-21T10:12:28;97849.50;;;-4.26;44.61
28510;BME280;15723;55.684;37.928;2023-02-21T10:21:20;97854.91;;;-4.05;45.59
28510;BME280;15723;55.684;37.928;2023-02-21T10:23:50;97851.84;;;-3.51;44.52
28510;BME280;15723;55.684;37.928;2023-02-21T10:26:27;97846.66;;;-4.21;44.95
28510;BME280;15723;55.684;37.928;2023-02-21T10:28:54;97851.50;;;-4.09;43.63
28510;BME280;15723;55.684;37.928;2023-02-21T10:31:27;97859.56;;;-4.59;45.34
28510;BME280;15723;55.684;37.928;2023-02-21T10:33:54;97855.25;;;-4.15;45.25
28510;BME280;15723;55.684;37.928;2023-02-21T10:36:22;97858.56;;;-4.08;45.25
28510;BME280;15723;55.684;37.928;2023-02-21T10:39:03;97858.63;;;-4.58;45.61
28510;BME280;15723;55.684;37.928;2023-02-21T10:41:34;97868.91;;;-4.74;46.73
28510;BME280;15723;55.684;37.928;2023-02-21T10:44:08;97873.47;;;-4.54;46.16
28510;BME280;15723;55.684;37.928;2023-02-21T10:46:41;97879.56;;;-4.75;45.84
28510;BME280;15723;55.684;37.928;2023-02-21T10:49:22;97876.63;;;-4.67;45.57
28510;BME280;15723;55.684;37.928;2023-02-21T10:52:10;97878.47;;;-4.45;44.66
28510;BME280;15723;55.684;37.928;2023-02-21T10:54:36;97883.00;;;-4.25;44.74
28510;BME280;15723;55.684;37.928;2023-02-21T10:57:06;97890.78;;;-4.68;45.52
28510;BME280;15723;55.684;37.928;2023-02-21T10:59:36;97880.94;;;-4.40;45.11
28510;BME280;15723;55.684;37.928;2023-02-21T11:02:31;97879.00;;;-3.66;44.48
28510;BME280;15723;55.684;37.928;2023-02-21T11:05:27;97887.09;;;-4.39;45.88
28510;BME280;15723;55.684;37.928;2023-02-21T11:08:12;97890.28;;;-5.31;47.16
28510;BME280;15723;55.684;37.928;2023-02-21T11:10:43;97883.75;;;-5.74;47.13
28510;BME280;15723;55.684;37.928;2023-02-21T11:13:21;97891.66;;;-5.46;46.21
28510;BME280;15723;55.684;37.928;2023-02-21T11:16:08;97894.66;;;-5.30;47.60
28510;BME280;15723;55.684;37.928;2023-02-21T11:18:35;97890.44;;;-4.84;46.80
28510;BME280;15723;55.684;37.928;2023-02-21T11:21:13;97886.94;;;-4.60;47.78
28510;BME280;15723;55.684;37.928;2023-02-21T11:23:56;97895.84;;;-4.37;45.79
28510;BME280;15723;55.684;37.928;2023-02-21T11:26:37;97898.22;;;-5.05;46.03
28510;BME280;15723;55.684;37.928;2023-02-21T11:29:29;97895.72;;;-5.36;46.52
28510;BME280;15723;55.684;37.928;2023-02-21T11:31:55;97897.25;;;-5.02;46.07
28510;BME280;15723;55.684;37.928;2023-02-21T11:34:28;97906.56;;;-5.43;46.26
28510;BME280;15723;55.684;37.928;2023-02-21T11:37:03;97908.09;;;-4.85;46.61
28510;BME280;15723;55.684;37.928;2023-02-21T11:39:32;97905.13;;;-4.51;45.35
28510;BME280;15723;55.684;37.928;2023-02-21T11:42:00;97908.50;;;-4.46;45.41
28510;BME280;15723;55.684;37.928;2023-02-21T11:44:37;97912.19;;;-4.75;45.28
28510;BME280;15723;55.684;37.928;2023-02-21T11:47:12;97915.47;;;-5.19;46.84
28510;BME280;15723;55.684;37.928;2023-02-21T11:53:22;97912.91;;;-4.46;44.75
28510;BME280;15723;55.684;37.928;2023-02-21T11:55:24;97914.22;;;-4.33;44.59
28510;BME280;15723;55.684;37.928;2023-02-21T12:03:16;97920.38;;;-5.35;46.11
28510;BME280;15723;55.684;37.928;2023-02-21T12:05:57;97924.56;;;-4.75;46.11
28510;BME280;15723;55.684;37.928;2023-02-21T12:17:06;97939.34;;;-5.49;46.40
28510;BME280;15723;55.684;37.928;2023-02-21T12:33:29;97952.25;;;-5.68;46.69
28510;BME280;15723;55.684;37.928;2023-02-21T12:36:25;97957.59;;;-5.41;45.30
28510;BME280;15723;55.684;37.928;2023-02-21T12:39:13;97958.84;;;-5.81;46.00
28510;BME280;15723;55.684;37.928;2023-02-21T12:47:59;97977.13;;;-4.91;44.99
28510;BME280;15723;55.684;37.928;2023-02-21T12:50:40;97982.91;;;-4.78;45.64
28510;BME280;15723;55.684;37.928;2023-02-21T12:53:16;97970.47;;;-4.51;45.91
28510;BME280;15723;55.684;37.928;2023-02-21T12:56:10;97983.00;;;-4.56;44.19
28510;BME280;15723;55.684;37.928;2023-02-21T13:04:53;97993.53;;;-4.80;44.80
28510;BME280;15723;55.684;37.928;2023-02-21T13:07:35;97998.94;;;-5.39;45.44
28510;BME280;15723;55.684;37.928;2023-02-21T13:15:48;98005.69;;;-5.28;46.20
28510;BME280;15723;55.684;37.928;2023-02-21T13:18:23;98020.63;;;-5.27;46.20
28510;BME280;15723;55.684;37.928;2023-02-21T13:21:23;98013.91;;;-4.83;45.49
28510;BME280;15723;55.684;37.928;2023-02-21T13:24:15;98022.56;;;-5.62;46.03
28510;BME280;15723;55.684;37.928;2023-02-21T13:29:30;98027.41;;;-6.38;47.59
28510;BME280;15723;55.684;37.928;2023-02-21T13:32:00;98037.25;;;-6.12;47.51
28510;BME280;15723;55.684;37.928;2023-02-21T13:34:30;98037.09;;;-5.77;47.06
28510;BME280;15723;55.684;37.928;2023-02-21T13:37:12;98050.41;;;-5.80;46.46
28510;BME280;15723;55.684;37.928;2023-02-21T13:39:44;98038.28;;;-5.28;46.02
28510;BME280;15723;55.684;37.928;2023-02-21T13:42:16;98041.50;;;-5.46;46.21
28510;BME280;15723;55.684;37.928;2023-02-21T13:45:28;98048.84;;;-5.56;46.50
28510;BME280;15723;55.684;37.928;2023-02-21T13:55:34;98064.94;;;-5.65;47.45
28510;BME280;15723;55.684;37.928;2023-02-21T14:03:00;98081.16;;;-5.46;46.95
28510;BME280;15723;55.684;37.928;2023-02-21T14:08:46;98103.47;;;-7.28;49.01
28510;BME280;15723;55.684;37.928;2023-02-21T14:13:55;98119.22;;;-8.11;53.29
28510;BME280;15723;55.684;37.928;2023-02-21T14:16:32;98126.00;;;-8.46;53.39
28510;BME280;15723;55.684;37.928;2023-02-21T14:19:07;98133.63;;;-8.83;53.87
28510;BME280;15723;55.684;37.928;2023-02-21T14:21:39;98131.22;;;-8.98;54.53
28510;BME280;15723;55.684;37.928;2023-02-21T14:29:38;98157.69;;;-9.10;55.53
28510;BME280;15723;55.684;37.928;2023-02-21T14:37:23;98170.16;;;-9.25;55.73
28510;BME280;15723;55.684;37.928;2023-02-21T14:45:48;98190.78;;;-9.66;56.71
28510;BME280;15723;55.684;37.928;2023-02-21T14:54:28;98206.56;;;-9.69;57.44
28510;BME280;15723;55.684;37.928;2023-02-21T15:02:42;98235.75;;;-9.95;59.71
28510;BME280;15723;55.684;37.928;2023-02-21T15:05:16;98238.38;;;-9.97;59.88
28510;BME280;15723;55.684;37.928;2023-02-21T15:10:32;98244.44;;;-9.90;59.13
28510;BME280;15723;55.684;37.928;2023-02-21T15:13:04;98248.94;;;-10.06;58.96
28510;BME280;15723;55.684;37.928;2023-02-21T15:15:41;98256.81;;;-10.04;59.41
28510;BME280;15723;55.684;37.928;2023-02-21T15:18:31;98253.28;;;-9.97;58.96
28510;BME280;15723;55.684;37.928;2023-02-21T15:21:15;98259.44;;;-10.06;59.00
28510;BME280;15723;55.684;37.928;2023-02-21T15:23:47;98270.91;;;-10.15;59.34
28510;BME280;15723;55.684;37.928;2023-02-21T15:26:27;98267.19;;;-9.89;58.80
28510;BME280;15723;55.684;37.928;2023-02-21T15:31:34;98268.28;;;-10.15;59.28
28510;BME280;15723;55.684;37.928;2023-02-21T15:34:01;98282.50;;;-10.37;59.64
28510;BME280;15723;55.684;37.928;2023-02-21T15:36:28;98277.91;;;-10.17;59.70
28510;BME280;15723;55.684;37.928;2023-02-21T15:39:34;98281.69;;;-10.50;59.53
28510;BME280;15723;55.684;37.928;2023-02-21T15:42:04;98284.19;;;-10.31;59.95
28510;BME280;15723;55.684;37.928;2023-02-21T15:47:20;98300.00;;;-10.40;60.54
28510;BME280;15723;55.684;37.928;2023-02-21T15:52:50;98308.78;;;-10.48;59.89